createdAt,value
2018-09-18T00:01:25.025Z,20.00
2018-09-18T00:03:53.874Z,22.03
2018-09-18T00:06:22.767Z,19.67
2018-09-18T00:08:51.609Z,22.60
2018-09-18T00:11:20.446Z,20.10
2018-09-18T00:13:49.381Z,16.83
2018-09-18T00:16:18.501Z,20.13
2018-09-18T00:18:47.330Z,22.97
2018-09-18T00:21:16.341Z,20.50
2018-09-18T00:23:45.133Z,22.00
2018-09-18T00:26:14.016Z,27.90
2018-09-18T00:28:43.152Z,18.63
2018-09-18T00:31:12.220Z,21.97
2018-09-18T00:33:41.233Z,19.87
2018-09-18T00:36:10.503Z,19.57
2018-09-18T00:38:39.784Z,23.10
2018-09-18T00:41:08.876Z,21.73
2018-09-18T00:43:38.172Z,20.77
2018-09-18T00:46:07.348Z,22.83
2018-09-18T00:48:36.772Z,19.10
2018-09-18T00:51:05.866Z,21.80
2018-09-18T00:53:34.998Z,22.63
2018-09-18T00:56:03.887Z,19.13
2018-09-18T00:58:33.297Z,22.00
2018-09-18T01:01:02.181Z,18.50
2018-09-18T01:03:31.298Z,21.60
2018-09-18T01:06:00.871Z,21.07
2018-09-18T01:08:30.007Z,21.53
2018-09-18T01:10:59.103Z,23.53
2018-09-18T01:13:27.988Z,20.80
2018-09-18T01:15:56.897Z,20.13
2018-09-18T01:18:30.074Z,24.50
2018-09-18T01:20:58.997Z,21.87
2018-09-18T01:23:28.061Z,20.43
2018-09-18T01:25:57.237Z,23.10
2018-09-18T01:28:26.393Z,18.80
2018-09-18T01:30:55.522Z,20.80
2018-09-18T01:33:25.038Z,20.90
2018-09-18T01:35:54.378Z,19.83
2018-09-18T01:38:23.357Z,21.60
2018-09-18T01:40:52.436Z,22.23
2018-09-18T01:43:21.976Z,22.03
2018-09-18T01:45:51.146Z,19.50
2018-09-18T01:48:20.254Z,25.23
2018-09-18T01:50:49.117Z,22.10
2018-09-18T01:53:18.199Z,25.10
2018-09-18T01:55:47.036Z,22.07
2018-09-18T01:58:17.057Z,21.07
2018-09-18T02:00:46.148Z,18.30
2018-09-18T02:03:15.500Z,44.93
2018-09-18T02:05:44.838Z,34.00
2018-09-18T02:08:14.957Z,14.30
2018-09-18T02:10:44.031Z,25.53
2018-09-18T02:13:13.144Z,17.77
2018-09-18T02:15:42.776Z,33.40
2018-09-18T02:18:12.038Z,21.40
2018-09-18T02:20:41.111Z,20.90
2018-09-18T02:23:10.392Z,21.70
2018-09-18T02:25:40.147Z,20.60
2018-09-18T02:28:09.490Z,36.37
2018-09-18T02:30:38.595Z,22.50
2018-09-18T02:33:07.447Z,31.17
2018-09-18T02:35:36.575Z,20.97
2018-09-18T02:38:05.456Z,31.63
2018-09-18T02:40:34.991Z,24.60
2018-09-18T02:43:04.369Z,21.97
2018-09-18T02:45:33.671Z,23.67
2018-09-18T02:48:03.155Z,20.40
2018-09-18T02:50:32.665Z,20.03
2018-09-18T02:53:02.169Z,18.03
2018-09-18T02:55:31.849Z,18.83
2018-09-18T02:58:01.564Z,19.50
2018-09-18T03:00:30.824Z,18.50
2018-09-18T03:03:00.228Z,19.50
2018-09-18T03:05:30.216Z,20.83
2018-09-18T03:08:00.282Z,19.63
2018-09-18T03:10:31.102Z,19.93
2018-09-18T03:13:00.610Z,24.23
2018-09-18T03:15:29.765Z,22.57
2018-09-18T03:17:59.933Z,24.63
2018-09-18T03:20:29.425Z,20.33
2018-09-18T03:22:59.205Z,18.87
2018-09-18T03:25:29.236Z,19.77
2018-09-18T03:27:58.636Z,20.60
2018-09-18T03:30:28.140Z,22.00
2018-09-18T03:32:57.143Z,19.97
2018-09-18T03:35:26.058Z,21.40
2018-09-18T03:37:55.618Z,18.47
2018-09-18T03:40:25.249Z,27.73
2018-09-18T03:42:55.034Z,21.27
2018-09-18T03:45:24.714Z,21.03
2018-09-18T03:47:54.274Z,20.93
2018-09-18T03:50:23.590Z,19.90
2018-09-18T03:52:53.257Z,18.60
2018-09-18T03:55:22.727Z,18.07
2018-09-18T03:57:52.350Z,25.40
2018-09-18T04:00:21.947Z,24.13
2018-09-18T04:02:51.653Z,26.20
2018-09-18T04:05:21.490Z,21.10
2018-09-18T04:07:50.818Z,26.43
2018-09-18T04:10:20.205Z,21.80
2018-09-18T04:12:49.582Z,22.73
2018-09-18T04:15:19.141Z,26.50
2018-09-18T04:17:48.866Z,19.30
2018-09-18T04:20:18.279Z,20.37
2018-09-18T04:22:47.647Z,22.03
2018-09-18T04:25:18.423Z,22.70
2018-09-18T04:27:48.394Z,19.80
2018-09-18T04:30:17.752Z,19.20
2018-09-18T04:32:47.083Z,17.77
2018-09-18T04:35:20.286Z,21.40
2018-09-18T04:37:51.692Z,23.93
2018-09-18T04:40:23.342Z,19.77
2018-09-18T04:42:53.056Z,19.80
2018-09-18T04:45:23.113Z,20.73
2018-09-18T04:47:52.822Z,17.97
2018-09-18T04:50:22.625Z,21.57
2018-09-18T04:52:52.098Z,20.67
2018-09-18T04:55:21.735Z,17.57
2018-09-18T04:57:51.163Z,22.00
2018-09-18T05:00:21.529Z,21.93
2018-09-18T05:02:51.552Z,19.30
2018-09-18T05:05:20.868Z,20.20
2018-09-18T05:07:52.370Z,19.37
2018-09-18T05:10:29.491Z,20.60
2018-09-18T05:26:59.530Z,28.07
2018-09-18T05:35:54.314Z,20.63
2018-09-18T05:46:51.489Z,20.63
2018-09-18T05:49:25.099Z,18.53
2018-09-18T05:51:55.120Z,15.83
2018-09-18T05:54:23.999Z,15.03
2018-09-18T05:56:54.011Z,15.77
2018-09-18T05:59:23.528Z,12.47
2018-09-18T06:01:52.626Z,12.87
2018-09-18T06:04:21.714Z,12.70
2018-09-18T06:06:50.805Z,12.27
2018-09-18T06:09:20.190Z,12.00
2018-09-18T06:11:49.483Z,12.03
2018-09-18T06:14:18.759Z,11.53
2018-09-18T06:16:47.524Z,11.67
2018-09-18T06:19:16.940Z,11.70
2018-09-18T06:21:45.808Z,10.00
2018-09-18T06:24:14.808Z,10.10
2018-09-18T06:26:43.825Z,10.10
2018-09-18T06:29:12.833Z,15.60
2018-09-18T06:31:41.617Z,12.30
2018-09-18T06:34:10.461Z,11.83
2018-09-18T06:36:39.456Z,9.47
2018-09-18T06:39:10.194Z,10.60
2018-09-18T06:41:39.225Z,10.63
2018-09-18T06:44:08.197Z,10.23
2018-09-18T06:46:36.939Z,9.57
2018-09-18T06:49:05.689Z,8.13
2018-09-18T06:51:34.467Z,10.00
2018-09-18T06:54:03.589Z,10.23
2018-09-18T06:56:32.307Z,10.57
2018-09-18T06:59:01.337Z,10.20
2018-09-18T07:01:30.192Z,9.30
2018-09-18T07:03:58.905Z,8.20
2018-09-18T07:06:27.676Z,8.67
2018-09-18T07:08:56.526Z,9.27
2018-09-18T07:11:25.247Z,9.77
2018-09-18T07:13:54.069Z,9.40
2018-09-18T07:16:22.774Z,7.87
2018-09-18T07:18:51.533Z,7.93
2018-09-18T07:21:20.216Z,7.90
2018-09-18T07:23:48.925Z,8.00
2018-09-18T07:26:17.603Z,11.47
2018-09-18T07:28:46.299Z,8.23
2018-09-18T07:31:14.955Z,8.07
2018-09-18T07:33:43.615Z,8.33
2018-09-18T07:36:12.540Z,7.90
2018-09-18T07:38:41.383Z,10.90
2018-09-18T07:41:10.082Z,8.20
2018-09-18T07:43:38.899Z,7.73
2018-09-18T07:46:07.903Z,7.57
2018-09-18T07:48:38.332Z,7.07
2018-09-18T07:51:09.304Z,8.50
2018-09-18T07:53:38.146Z,9.13
2018-09-18T07:56:07.052Z,8.70
2018-09-18T07:58:35.724Z,9.70
2018-09-18T08:01:04.425Z,8.90
2018-09-18T08:03:33.099Z,9.50
2018-09-18T08:06:01.790Z,8.93
2018-09-18T08:08:30.512Z,10.83
2018-09-18T08:10:59.205Z,9.27
2018-09-18T08:13:28.026Z,9.70
2018-09-18T08:15:56.971Z,7.83
2018-09-18T08:18:25.650Z,9.93
2018-09-18T08:20:54.343Z,8.17
2018-09-18T08:23:22.964Z,8.03
2018-09-18T08:25:51.715Z,8.80
2018-09-18T08:28:20.346Z,8.60
2018-09-18T08:30:48.980Z,9.90
2018-09-18T08:33:17.624Z,9.73
2018-09-18T08:35:46.215Z,9.20
2018-09-18T08:38:14.835Z,9.10
2018-09-18T08:40:43.537Z,8.13
2018-09-18T08:43:12.244Z,8.73
2018-09-18T08:45:41.055Z,9.93
2018-09-18T08:48:10.015Z,7.87
2018-09-18T08:50:38.812Z,10.60
2018-09-18T08:53:07.539Z,7.07
2018-09-18T08:55:36.377Z,7.30
2018-09-18T08:58:05.477Z,8.73
2018-09-18T09:00:34.494Z,7.57
2018-09-18T09:03:03.306Z,8.90
2018-09-18T09:05:31.988Z,8.77
2018-09-18T09:08:00.808Z,8.23
2018-09-18T09:10:29.711Z,8.70
2018-09-18T09:12:58.590Z,8.00
2018-09-18T09:15:27.346Z,7.87
2018-09-18T09:17:56.329Z,7.27
2018-09-18T09:20:25.106Z,11.87
2018-09-18T09:22:54.148Z,11.90
2018-09-18T09:25:22.924Z,7.40
2018-09-18T09:27:51.689Z,6.30
2018-09-18T09:30:20.895Z,6.50
2018-09-18T09:32:49.776Z,6.90
2018-09-18T09:35:18.521Z,7.40
2018-09-18T09:37:47.449Z,8.20
2018-09-18T09:40:16.373Z,8.70
2018-09-18T09:42:45.341Z,6.47
2018-09-18T09:45:14.171Z,7.63
2018-09-18T09:47:42.929Z,6.60
2018-09-18T09:50:11.829Z,6.57
2018-09-18T09:52:40.576Z,8.00
2018-09-18T09:55:09.305Z,7.17
2018-09-18T09:57:38.283Z,6.33
2018-09-18T10:00:07.965Z,6.00
2018-09-18T10:02:41.856Z,6.90
2018-09-18T10:05:10.590Z,7.10
2018-09-18T10:07:39.318Z,6.63
2018-09-18T10:10:08.119Z,6.90
2018-09-18T10:12:36.897Z,6.37
2018-09-18T10:15:06.058Z,7.83
2018-09-18T10:17:35.019Z,7.73
2018-09-18T10:20:04.360Z,6.03
2018-09-18T10:22:33.600Z,6.47
2018-09-18T10:25:02.435Z,6.00
2018-09-18T10:27:31.364Z,5.57
2018-09-18T10:30:00.244Z,5.80
2018-09-18T10:32:29.226Z,6.33
2018-09-18T10:34:58.067Z,6.93
2018-09-18T10:37:26.817Z,6.40
2018-09-18T10:39:55.718Z,5.50
2018-09-18T10:42:24.638Z,5.40
2018-09-18T10:44:53.448Z,5.27
2018-09-18T10:47:22.351Z,4.93
2018-09-18T10:49:51.239Z,5.77
2018-09-18T10:52:20.562Z,5.07
2018-09-18T10:54:49.550Z,6.27
2018-09-18T10:57:18.829Z,9.60
2018-09-18T10:59:47.588Z,5.87
2018-09-18T11:02:16.569Z,6.00
2018-09-18T11:04:45.427Z,5.67
2018-09-18T11:07:14.602Z,5.77
2018-09-18T11:09:43.517Z,6.67
2018-09-18T11:12:12.460Z,7.40
2018-09-18T11:14:41.397Z,5.70
2018-09-18T11:17:10.255Z,5.80
2018-09-18T11:19:39.471Z,6.87
2018-09-18T11:22:08.447Z,7.30
2018-09-18T11:24:37.757Z,7.00
2018-09-18T11:27:06.538Z,6.37
2018-09-18T11:29:35.323Z,6.50
2018-09-18T11:32:04.250Z,5.63
2018-09-18T11:34:33.015Z,7.13
2018-09-18T11:37:02.035Z,6.30
2018-09-18T11:39:30.788Z,6.30
2018-09-18T11:41:59.538Z,5.73
2018-09-18T11:44:28.566Z,6.87
2018-09-18T11:46:57.319Z,6.00
2018-09-18T11:49:26.079Z,6.27
2018-09-18T11:51:55.025Z,5.90
2018-09-18T11:54:23.754Z,5.90
2018-09-18T11:56:52.745Z,6.30
2018-09-18T11:59:21.710Z,6.60
2018-09-18T12:01:50.481Z,5.53
2018-09-18T12:04:19.297Z,5.90
2018-09-18T12:06:48.034Z,6.00
2018-09-18T12:09:16.877Z,5.97
2018-09-18T12:11:45.825Z,6.07
2018-09-18T12:14:14.611Z,5.90
2018-09-18T12:16:43.389Z,6.10
2018-09-18T12:19:12.169Z,11.10
2018-09-18T12:21:41.174Z,5.40
2018-09-18T12:24:09.930Z,6.13
2018-09-18T12:26:38.697Z,6.67
2018-09-18T12:29:07.666Z,6.27
2018-09-18T12:31:36.462Z,5.83
2018-09-18T12:34:05.261Z,5.87
2018-09-18T12:36:34.279Z,6.80
2018-09-18T12:39:03.335Z,6.60
2018-09-18T12:41:32.497Z,8.53
2018-09-18T12:44:01.634Z,6.20
2018-09-18T12:46:30.486Z,6.00
2018-09-18T12:48:59.568Z,7.33
2018-09-18T12:51:28.430Z,8.23
2018-09-18T12:53:57.638Z,5.50
2018-09-18T12:56:26.499Z,8.83
2018-09-18T12:58:55.924Z,9.63
2018-09-18T13:01:24.836Z,6.50
2018-09-18T13:03:53.857Z,6.10
2018-09-18T13:06:22.740Z,6.10
2018-09-18T13:08:51.550Z,7.93
2018-09-18T13:11:20.303Z,6.17
2018-09-18T13:13:49.123Z,6.00
2018-09-18T13:16:18.026Z,5.77
2018-09-18T13:18:47.163Z,8.13
2018-09-18T13:21:15.934Z,5.40
2018-09-18T13:23:44.679Z,6.73
2018-09-18T13:26:13.445Z,5.40
2018-09-18T13:28:42.464Z,5.03
2018-09-18T13:31:11.161Z,7.17
2018-09-18T13:33:39.844Z,5.40
2018-09-18T13:36:08.799Z,5.60
2018-09-18T13:38:37.804Z,6.00
2018-09-18T13:41:07.059Z,5.93
2018-09-18T13:43:35.800Z,6.17
2018-09-18T13:46:05.547Z,5.20
2018-09-18T13:48:34.326Z,11.53
2018-09-18T13:51:03.513Z,7.00
2018-09-18T13:53:32.930Z,8.03
2018-09-18T13:56:02.063Z,9.23
2018-09-18T13:58:31.014Z,7.63
2018-09-18T14:01:00.103Z,7.30
2018-09-18T14:03:28.868Z,5.90
2018-09-18T14:05:57.811Z,7.73
2018-09-18T14:08:26.813Z,8.03
2018-09-18T14:10:55.795Z,6.80
2018-09-18T14:13:24.533Z,7.53
2018-09-18T14:15:53.325Z,8.83
2018-09-18T14:18:22.107Z,8.77
2018-09-18T14:20:50.898Z,7.63
2018-09-18T14:23:20.239Z,7.03
2018-09-18T14:25:49.033Z,11.40
2018-09-18T14:28:17.838Z,10.80
2018-09-18T14:30:46.703Z,8.13
2018-09-18T14:33:15.565Z,6.83
2018-09-18T14:35:44.597Z,6.87
2018-09-18T14:38:14.056Z,9.37
2018-09-18T14:40:43.068Z,6.67
2018-09-18T14:43:12.181Z,6.80
2018-09-18T14:45:41.300Z,6.57
2018-09-18T14:48:10.106Z,7.90
2018-09-18T14:50:39.006Z,8.20
2018-09-18T14:53:08.077Z,9.47
2018-09-18T14:55:36.849Z,5.70
2018-09-18T14:58:05.854Z,6.37
2018-09-18T15:00:34.668Z,9.13
2018-09-18T15:03:03.445Z,14.00
2018-09-18T15:05:32.220Z,15.23
2018-09-18T15:08:02.965Z,8.97
2018-09-18T15:10:31.719Z,11.17
2018-09-18T15:13:00.493Z,14.90
2018-09-18T15:15:29.344Z,9.30
2018-09-18T15:17:58.238Z,8.97
2018-09-18T15:20:27.086Z,6.80
2018-09-18T15:22:56.021Z,7.20
2018-09-18T15:25:24.773Z,7.13
2018-09-18T15:27:54.417Z,10.60
2018-09-18T15:30:23.630Z,9.13
2018-09-18T15:32:52.407Z,7.67
2018-09-18T15:35:21.175Z,6.60
2018-09-18T15:37:49.915Z,8.40
2018-09-18T15:40:18.736Z,8.10
2018-09-18T15:42:47.505Z,7.80
2018-09-18T15:45:16.688Z,8.23
2018-09-18T15:47:45.444Z,17.27
2018-09-18T15:50:14.581Z,12.80
2018-09-18T15:52:43.357Z,9.50
2018-09-18T15:55:12.621Z,8.13
2018-09-18T15:57:41.515Z,9.33
2018-09-18T16:00:10.488Z,8.90
2018-09-18T16:02:39.255Z,7.90
2018-09-18T16:05:08.507Z,17.13
2018-09-18T16:07:37.303Z,13.53
2018-09-18T16:10:06.495Z,10.47
2018-09-18T16:12:35.771Z,14.90
2018-09-18T16:15:04.825Z,8.83
2018-09-18T16:17:33.789Z,12.20
2018-09-18T16:20:02.590Z,9.53
2018-09-18T16:22:31.383Z,8.73
2018-09-18T16:25:00.413Z,9.33
2018-09-18T16:27:29.386Z,11.17
2018-09-18T16:29:58.156Z,10.20
2018-09-18T16:32:26.962Z,9.80
2018-09-18T16:34:55.698Z,11.90
2018-09-18T16:37:24.458Z,13.90
2018-09-18T16:39:53.451Z,10.27
2018-09-18T16:42:22.424Z,10.47
2018-09-18T16:44:51.499Z,12.47
2018-09-18T16:47:20.394Z,14.03
2018-09-18T16:49:49.224Z,10.10
2018-09-18T16:52:18.022Z,12.93
2018-09-18T16:54:47.428Z,11.23
2018-09-18T16:57:17.049Z,14.70
2018-09-18T16:59:46.106Z,12.97
2018-09-18T17:02:14.966Z,11.17
2018-09-18T17:04:44.066Z,14.27
2018-09-18T17:07:13.521Z,11.63
2018-09-18T17:09:42.850Z,14.70
2018-09-18T17:12:11.695Z,11.33
2018-09-18T17:14:41.050Z,12.43
2018-09-18T17:17:10.078Z,11.43
2018-09-18T17:19:39.427Z,9.93
2018-09-18T17:22:08.551Z,11.40
2018-09-18T17:24:37.716Z,14.87
2018-09-18T17:27:06.908Z,10.60
2018-09-18T17:29:36.159Z,14.53
2018-09-18T17:32:05.946Z,13.00
2018-09-18T17:34:35.100Z,15.33
2018-09-18T17:37:03.969Z,12.60
2018-09-18T17:39:33.236Z,12.50
2018-09-18T17:42:02.035Z,12.50
2018-09-18T17:44:32.430Z,12.90
2018-09-18T17:47:01.222Z,12.57
2018-09-18T17:49:30.007Z,11.73
2018-09-18T17:51:59.079Z,13.10
2018-09-18T17:54:28.266Z,13.87
2018-09-18T17:56:57.490Z,13.13
2018-09-18T17:59:26.901Z,15.30
2018-09-18T18:01:55.908Z,13.43
2018-09-18T18:04:24.656Z,11.97
2018-09-18T18:06:53.642Z,13.27
2018-09-18T18:09:22.878Z,14.60
2018-09-18T18:11:51.701Z,12.57
2018-09-18T18:14:21.194Z,11.47
2018-09-18T18:16:50.064Z,14.93
2018-09-18T18:19:18.828Z,13.87
2018-09-18T18:21:47.620Z,12.87
2018-09-18T18:24:16.514Z,13.20
2018-09-18T18:26:45.284Z,13.13
2018-09-18T18:29:14.075Z,15.47
2018-09-18T18:31:43.018Z,13.47
2018-09-18T18:34:11.870Z,14.23
2018-09-18T18:36:40.715Z,15.33
2018-09-18T18:39:11.189Z,12.87
2018-09-18T18:41:40.243Z,16.90
2018-09-18T18:44:11.282Z,14.23
2018-09-18T18:46:40.290Z,15.07
2018-09-18T18:49:09.059Z,13.67
2018-09-18T18:51:38.336Z,15.37
2018-09-18T18:54:07.488Z,14.37
2018-09-18T18:56:36.413Z,17.23
2018-09-18T18:59:05.228Z,14.87
2018-09-18T19:01:34.227Z,14.10
2018-09-18T19:04:03.630Z,14.40
2018-09-18T19:06:32.526Z,15.63
2018-09-18T19:09:01.498Z,16.13
2018-09-18T19:11:30.384Z,13.13
2018-09-18T19:13:59.268Z,14.97
2018-09-18T19:16:31.297Z,23.30
2018-09-18T19:19:01.188Z,17.67
2018-09-18T19:21:34.442Z,22.93
2018-09-18T19:24:03.380Z,28.47
2018-09-18T19:26:32.787Z,26.00
2018-09-18T19:29:01.614Z,24.90
2018-09-18T19:31:30.549Z,29.83
2018-09-18T19:33:59.458Z,34.20
2018-09-18T19:36:28.383Z,29.93
2018-09-18T19:39:02.705Z,28.60
2018-09-18T19:41:31.445Z,24.60
2018-09-18T19:44:00.270Z,27.50
2018-09-18T19:46:30.401Z,28.90
2018-09-18T19:48:59.279Z,21.70
2018-09-18T19:51:29.108Z,17.33
2018-09-18T19:53:58.123Z,17.20
2018-09-18T19:56:26.944Z,18.20
2018-09-18T19:58:56.034Z,18.33
2018-09-18T20:01:24.864Z,15.60
2018-09-18T20:03:54.186Z,15.20
2018-09-18T20:06:23.094Z,23.37
2018-09-18T20:08:56.197Z,14.70
2018-09-18T20:11:25.283Z,15.17
2018-09-18T20:13:54.144Z,15.70
2018-09-18T20:16:23.249Z,20.00
2018-09-18T20:18:52.078Z,21.07
2018-09-18T20:21:20.950Z,15.70
2018-09-18T20:23:51.922Z,17.03
2018-09-18T20:26:20.755Z,15.20
2018-09-18T20:28:51.830Z,16.80
2018-09-18T20:31:20.859Z,21.63
2018-09-18T20:33:49.899Z,30.30
2018-09-18T20:36:19.401Z,16.30
2018-09-18T20:38:48.579Z,18.07
2018-09-18T20:41:17.345Z,19.03
2018-09-18T20:43:46.397Z,23.03
2018-09-18T20:46:15.643Z,23.90
2018-09-18T20:48:44.643Z,18.03
2018-09-18T20:51:13.917Z,26.00
2018-09-18T20:53:42.712Z,20.77
2018-09-18T20:56:11.641Z,21.30
2018-09-18T20:58:40.661Z,20.70
2018-09-18T21:01:09.510Z,19.83
2018-09-18T21:03:39.574Z,21.60
2018-09-18T21:06:08.397Z,20.80
2018-09-18T21:08:38.194Z,21.33
2018-09-18T21:11:07.355Z,18.43
2018-09-18T21:13:36.179Z,18.60
2018-09-18T21:16:04.997Z,19.20
2018-09-18T21:18:34.357Z,21.03
2018-09-18T21:21:03.242Z,20.20
2018-09-18T21:23:32.464Z,16.17
2018-09-18T21:26:04.891Z,24.20
2018-09-18T21:28:34.722Z,19.03
2018-09-18T21:31:03.960Z,18.53
2018-09-18T21:33:32.913Z,19.50
2018-09-18T21:36:01.918Z,17.33
2018-09-18T21:38:31.296Z,22.33
2018-09-18T21:41:00.488Z,21.33
2018-09-18T21:43:29.906Z,19.87
2018-09-18T21:45:58.843Z,23.60
2018-09-18T21:48:27.628Z,17.47
2018-09-18T21:50:56.817Z,19.17
2018-09-18T21:53:25.649Z,20.27
2018-09-18T21:55:54.414Z,17.07
2018-09-18T21:58:23.587Z,18.43
2018-09-18T22:03:42.758Z,17.60
2018-09-18T22:06:12.907Z,19.93
2018-09-18T22:08:41.648Z,22.87
2018-09-18T22:11:11.128Z,16.77
2018-09-18T22:13:39.902Z,19.90
2018-09-18T22:16:08.935Z,16.20
2018-09-18T22:18:38.069Z,17.07
2018-09-18T22:21:07.852Z,17.20
2018-09-18T22:23:36.804Z,16.07
2018-09-18T22:26:05.987Z,17.87
2018-09-18T22:28:34.759Z,17.37
2018-09-18T22:31:03.588Z,18.20
2018-09-18T22:33:32.820Z,19.60
2018-09-18T22:36:01.954Z,18.23
2018-09-18T22:38:31.054Z,20.33
2018-09-18T22:41:00.622Z,18.10
2018-09-18T22:43:29.490Z,18.00
2018-09-18T22:45:58.561Z,17.33
2018-09-18T22:48:27.576Z,18.77
2018-09-18T22:50:56.695Z,18.50
2018-09-18T22:53:25.968Z,17.23
2018-09-18T22:55:55.445Z,18.10
2018-09-18T22:58:24.501Z,17.63
2018-09-18T23:00:53.316Z,16.83
2018-09-18T23:03:22.493Z,21.43
2018-09-18T23:05:51.517Z,20.00
2018-09-18T23:08:20.441Z,23.60
2018-09-18T23:10:49.548Z,20.77
2018-09-18T23:13:18.574Z,18.90
2018-09-18T23:15:47.594Z,20.40
2018-09-18T23:18:16.640Z,25.20
2018-09-18T23:20:45.456Z,19.73
2018-09-18T23:23:14.218Z,22.17
2018-09-18T23:25:43.527Z,19.00
2018-09-18T23:28:12.501Z,19.70
2018-09-18T23:30:41.679Z,19.20
2018-09-18T23:33:10.774Z,19.37
2018-09-18T23:35:39.611Z,20.97
2018-09-18T23:38:08.638Z,20.93
2018-09-18T23:40:37.748Z,22.30
2018-09-18T23:43:06.741Z,19.93
2018-09-18T23:45:35.843Z,19.13
2018-09-18T23:48:04.898Z,19.67
2018-09-18T23:50:33.699Z,20.03
2018-09-18T23:53:02.721Z,18.73
2018-09-18T23:55:31.771Z,30.23
2018-09-18T23:58:00.575Z,15.70
